Nashville, Ohio
Current Conditions -  °F | °C
As of 12:52 AM on Sunday 23 Nov 2014 (Local Time) from KMFD Reporting Station
Overcast Overcast  
Wind Chill: 43°   Ceiling: 3500
Heat Index: 49°   Visibility: 10mi
Dew Point: 35°   Wind: 15mph
Humidity: 59%   Direction: 190°S
Pressure: 30.03"   Gusts: NA
Location:  40.6°N, 82.11°W
Report Text: KMFD 230552Z 19013KT 10SM OVC035 09/02 A3003 RMK AO2 SLP174 60001 T00940017 10094 20078 57003
Loading
Personal Weather Stations






























Interactive Weather Map New forecast layout! Learn more

10-Day Weather Forecast

Advertisements
Track Severe Weather on mobile